Time;durP1;ratioP1;P1;durP2;ratioP2;P2;SDS_P1;SDS_P2;PMS_P1;PMS_P2;Temp;Humidity;BMP_temperature;BMP_pressure;BME280_temperature;BME280_humidity;BME280_pressure;Samples;Min_cycle;Max_cycle;Signal;HPM_P1;HPM_P2
2021/01/21 00:01:15;;;;;;;;;;;10.30;90.60;;;;;;5105697;28;19919;-80
2021/01/21 00:03:40;;;;;;;;;;;10.30;90.70;;;;;;5123783;28;19908;-80
2021/01/21 00:06:06;;;;;;;;;;;10.20;90.70;;;;;;5109711;28;19972;-80
2021/01/21 00:08:31;;;;;;;;;;;10.20;90.80;;;;;;5105277;28;19907;-80
2021/01/21 00:10:57;;;;;;;;;;;10.20;90.80;;;;;;5105036;28;20641;-80
2021/01/21 00:13:22;;;;;;;;;;;10.20;90.80;;;;;;5124189;28;19908;-80
2021/01/21 00:15:48;;;;;;;;;;;10.20;90.80;;;;;;5127950;27;19908;-80
2021/01/21 00:18:13;;;;;;;;;;;10.20;90.80;;;;;;5128699;27;19908;-80
2021/01/21 00:20:39;;;;;;;;;;;10.20;90.90;;;;;;5108040;27;20368;-80
2021/01/21 00:23:04;;;;;;;;;;;10.10;90.70;;;;;;5112980;27;20049;-80
2021/01/21 00:25:29;;;;;;;;;;;10.20;90.70;;;;;;5127263;27;19908;-81
2021/01/21 00:27:55;;;;;;;;;;;10.20;90.70;;;;;;5127099;27;20000;-80
2021/01/21 00:30:21;;;;;;;;;;;10.20;90.70;;;;;;5109269;28;19917;-80
2021/01/21 00:32:46;;;;;;;;;;;10.10;90.60;;;;;;5127928;27;19907;-80
2021/01/21 00:35:13;;;;;;;;;;;10.20;90.70;;;;;;5126384;27;20374;-81
2021/01/21 00:37:39;;;;;;;;;;;10.20;90.80;;;;;;5104153;27;19959;-80
2021/01/21 00:40:05;;;;;;;;;;;10.20;90.70;;;;;;5125592;27;19980;-80
2021/01/21 00:42:30;;;;;;;;;;;10.20;90.60;;;;;;5105432;27;20367;-80
2021/01/21 00:44:55;;;;;;;;;;;10.20;90.50;;;;;;5126322;27;19908;-80
2021/01/21 00:47:21;;;;;;;;;;;10.20;90.60;;;;;;5105774;27;20362;-80
2021/01/21 00:49:46;;;;;;;;;;;10.20;90.70;;;;;;5107433;27;19908;-80
2021/01/21 00:52:12;;;;;;;;;;;10.30;90.50;;;;;;5127863;27;19934;-81
2021/01/21 00:54:37;;;;;;;;;;;10.30;90.30;;;;;;5125969;27;20405;-80
2021/01/21 00:57:03;;;;;;;;;;;10.30;90.30;;;;;;5106092;27;19907;-80
2021/01/21 00:59:28;;;;;;;;;;;10.40;90.20;;;;;;5106450;28;19927;-80
2021/01/21 01:01:53;;;;;;;;;;;10.40;90.10;;;;;;5106454;28;19963;-80
2021/01/21 01:04:19;;;;;;;;;;;10.40;90.00;;;;;;5106776;28;19915;-80
2021/01/21 01:06:44;;;;;;;;;;;10.40;90.00;;;;;;5105424;28;20332;-80
2021/01/21 01:09:10;;;;;;;;;;;10.40;90.00;;;;;;5105955;28;19953;-81
2021/01/21 01:11:35;;;;;;;;;;;10.30;90.10;;;;;;5104430;28;19951;-80
2021/01/21 01:14:01;;;;;;;;;;;10.30;90.10;;;;;;5106199;28;19909;-80
2021/01/21 01:16:26;;;;;;;;;;;10.30;90.10;;;;;;5105524;28;19930;-80
2021/01/21 01:18:51;;;;;;;;;;;10.30;89.70;;;;;;5103445;28;19983;-80
2021/01/21 01:21:17;;;;;;;;;;;10.40;89.60;;;;;;5106102;28;19912;-81
2021/01/21 01:23:42;;;;;;;;;;;10.40;89.80;;;;;;5105042;28;19912;-80
2021/01/21 01:26:08;;;;;;;;;;;10.30;89.60;;;;;;5102594;28;19958;-80
2021/01/21 01:28:33;;;;;;;;;;;10.40;89.30;;;;;;5105494;28;19915;-81
2021/01/21 01:30:59;;;;;;;;;;;10.40;89.30;;;;;;5105663;28;20428;-80
2021/01/21 01:33:24;;;;;;;;;;;10.40;88.70;;;;;;5106637;28;19909;-80
2021/01/21 01:35:50;;;;;;;;;;;10.50;88.60;;;;;;5102744;28;19908;-81
2021/01/21 01:38:15;;;;;;;;;;;10.50;88.10;;;;;;5104487;28;20440;-81
2021/01/21 01:40:41;;;;;;;;;;;10.60;88.00;;;;;;5103102;28;19908;-80
2021/01/21 01:43:06;;;;;;;;;;;10.60;88.00;;;;;;5105836;28;20002;-80
2021/01/21 01:45:31;;;;;;;;;;;10.60;87.40;;;;;;5103447;28;19907;-81
2021/01/21 01:47:57;;;;;;;;;;;10.60;87.10;;;;;;5104007;28;20359;-80
2021/01/21 01:50:23;;;;;;;;;;;10.60;87.00;;;;;;5106087;28;19930;-81
2021/01/21 01:52:51;;;;;;;;;;;10.70;86.80;;;;;;5107791;28;19947;-81
2021/01/21 01:55:16;;;;;;;;;;;10.80;86.10;;;;;;5099815;28;19908;-80
2021/01/21 01:57:43;;;;;;;;;;;10.80;85.90;;;;;;5104611;28;20276;-80
2021/01/21 02:00:09;;;;;;;;;;;10.90;85.20;;;;;;5119150;27;20371;-81
2021/01/21 02:02:34;;;;;;;;;;;11.00;84.20;;;;;;5107173;27;20390;-81
2021/01/21 02:05:00;;;;;;;;;;;11.00;84.10;;;;;;5123943;27;19951;-81
2021/01/21 02:07:26;;;;;;;;;;;11.00;83.90;;;;;;5103474;27;20264;-81
2021/01/21 02:09:52;;;;;;;;;;;11.00;83.90;;;;;;5124118;27;19953;-81
2021/01/21 02:12:24;;;;;;;;;;;11.00;86.00;;;;;;5123902;27;19960;-81
2021/01/21 02:14:58;;;;;;;;;;;10.50;90.00;;;;;;5099899;27;19955;-80
2021/01/21 02:17:27;;;;;;;;;;;10.10;92.30;;;;;;5104121;27;20002;-80
2021/01/21 02:20:11;;;;;;;;;;;9.90;92.70;;;;;;5108898;27;19913;-81
2021/01/21 02:22:55;;;;;;;;;;;9.80;92.60;;;;;;5105074;27;20697;-81
2021/01/21 02:25:44;;;;;;;;;;;9.90;92.30;;;;;;5124433;27;19914;-81
2021/01/21 02:28:09;;;;;;;;;;;10.10;91.60;;;;;;5094702;27;20356;-80
2021/01/21 02:30:53;;;;;;;;;;;10.10;91.70;;;;;;5125524;27;19912;-81
2021/01/21 02:33:27;;;;;;;;;;;10.00;92.10;;;;;;5104135;27;19911;-81
2021/01/21 02:35:54;;;;;;;;;;;9.70;93.40;;;;;;5122950;27;19907;-81
2021/01/21 02:38:21;;;;;;;;;;;9.60;93.40;;;;;;5109024;28;20359;-81
2021/01/21 02:40:48;;;;;;;;;;;9.70;93.10;;;;;;5105903;27;19908;-81
2021/01/21 02:43:13;;;;;;;;;;;9.80;93.00;;;;;;5106559;27;19946;-81
2021/01/21 02:45:39;;;;;;;;;;;10.00;92.90;;;;;;5124338;27;19955;-80
2021/01/21 02:48:04;;;;;;;;;;;10.10;92.60;;;;;;5122711;27;19908;-80
2021/01/21 02:50:30;;;;;;;;;;;10.20;92.70;;;;;;5109283;27;19960;-81
2021/01/21 02:52:59;;;;;;;;;;;10.30;92.20;;;;;;5104977;27;19998;-80
2021/01/21 02:55:27;;;;;;;;;;;10.40;91.90;;;;;;5107306;27;19928;-81
2021/01/21 02:58:03;;;;;;;;;;;10.60;91.60;;;;;;5112354;27;19915;-81
2021/01/21 03:00:30;;;;;;;;;;;10.80;90.90;;;;;;5121981;27;20297;-81
2021/01/21 03:02:57;;;;;;;;;;;11.00;90.40;;;;;;5106226;27;19927;-81
2021/01/21 03:05:24;;;;;;;;;;;11.20;88.90;;;;;;5102936;28;20359;-81
2021/01/21 03:07:50;;;;;;;;;;;11.40;89.00;;;;;;5105359;27;20278;-81
2021/01/21 03:10:19;;;;;;;;;;;11.50;88.10;;;;;;5124283;27;19918;-80
2021/01/21 03:12:52;;;;;;;;;;;11.60;87.90;;;;;;5125306;27;19915;-80
2021/01/21 03:15:18;;;;;;;;;;;11.70;87.50;;;;;;5125109;27;19965;-81
2021/01/21 03:17:44;;;;;;;;;;;11.60;87.90;;;;;;5125737;27;20426;-81
2021/01/21 03:20:09;;;;;;;;;;;11.60;88.50;;;;;;5124534;27;20045;-81
2021/01/21 03:22:35;;;;;;;;;;;11.60;87.90;;;;;;5124711;28;20408;-81
2021/01/21 03:25:00;;;;;;;;;;;11.70;87.20;;;;;;5124774;28;19908;-80
2021/01/21 03:27:26;;;;;;;;;;;11.80;87.90;;;;;;5104996;28;20354;-81
2021/01/21 03:29:51;;;;;;;;;;;11.60;89.50;;;;;;5110426;28;19930;-81
2021/01/21 03:32:17;;;;;;;;;;;11.50;89.40;;;;;;5101376;28;19943;-81
2021/01/21 03:34:42;;;;;;;;;;;11.50;89.50;;;;;;5121938;28;19908;-81
2021/01/21 03:37:07;;;;;;;;;;;11.60;88.90;;;;;;5103921;28;19907;-81
2021/01/21 03:39:33;;;;;;;;;;;11.70;87.40;;;;;;5096396;28;19908;-80
2021/01/21 03:41:58;;;;;;;;;;;11.90;85.50;;;;;;5105349;28;19916;-81
2021/01/21 03:44:24;;;;;;;;;;;12.00;85.60;;;;;;5106215;28;20002;-80
2021/01/21 03:46:49;;;;;;;;;;;12.00;86.00;;;;;;5124814;28;19907;-81
2021/01/21 03:49:15;;;;;;;;;;;12.00;87.20;;;;;;5121932;27;19959;-81
2021/01/21 03:51:40;;;;;;;;;;;12.00;87.60;;;;;;5107865;27;19915;-81
2021/01/21 03:54:06;;;;;;;;;;;11.90;88.00;;;;;;5126475;27;19918;-80
2021/01/21 03:56:31;;;;;;;;;;;11.90;88.40;;;;;;5108675;27;20373;-81
2021/01/21 03:58:57;;;;;;;;;;;11.90;89.60;;;;;;5110608;28;19915;-81
2021/01/21 04:01:22;;;;;;;;;;;11.70;91.10;;;;;;5106810;28;19912;-81
2021/01/21 04:03:49;;;;;;;;;;;11.50;92.40;;;;;;5106856;28;19999;-81
2021/01/21 04:06:15;;;;;;;;;;;11.20;93.70;;;;;;5106176;28;19958;-81
2021/01/21 04:08:40;;;;;;;;;;;11.00;94.40;;;;;;5106000;28;19915;-81
2021/01/21 04:11:05;;;;;;;;;;;10.90;95.10;;;;;;5105002;28;19995;-81
2021/01/21 04:13:31;;;;;;;;;;;10.90;95.60;;;;;;5107145;28;19947;-81
2021/01/21 04:15:56;;;;;;;;;;;10.80;96.20;;;;;;5107688;28;19912;-81
2021/01/21 04:18:22;;;;;;;;;;;10.70;97.20;;;;;;5106608;28;20279;-81
2021/01/21 04:20:47;;;;;;;;;;;9.40;94.00;;;;;;5105175;28;19947;-82
2021/01/21 04:23:13;;;;;;;;;;;7.80;97.40;;;;;;5105616;28;19908;-82
2021/01/21 04:25:38;;;;;;;;;;;6.90;99.90;;;;;;5106492;28;19908;-82
2021/01/21 04:28:04;;;;;;;;;;;6.50;99.90;;;;;;5104609;28;19960;-82
2021/01/21 04:30:29;;;;;;;;;;;6.40;99.90;;;;;;5107248;28;20363;-81
2021/01/21 04:32:55;;;;;;;;;;;6.40;99.90;;;;;;5107504;28;19908;-82
2021/01/21 04:35:20;;;;;;;;;;;6.40;99.90;;;;;;5107610;28;19908;-81
2021/01/21 04:37:46;;;;;;;;;;;6.40;99.90;;;;;;5105390;28;20363;-82
2021/01/21 04:40:12;;;;;;;;;;;6.40;99.90;;;;;;5107506;28;19961;-81
2021/01/21 04:42:37;;;;;;;;;;;6.50;99.90;;;;;;5104481;28;19919;-82
2021/01/21 04:45:04;;;;;;;;;;;6.60;99.90;;;;;;5105629;28;20362;-82
2021/01/21 04:47:30;;;;;;;;;;;6.70;99.90;;;;;;5106235;28;19912;-81
2021/01/21 04:49:56;;;;;;;;;;;6.80;99.90;;;;;;5107336;28;19909;-80
2021/01/21 04:52:21;;;;;;;;;;;6.80;99.90;;;;;;5100720;28;19914;-80
2021/01/21 04:54:59;;;;;;;;;;;6.50;99.90;;;;;;5105635;28;19995;-80
2021/01/21 04:57:31;;;;;;;;;;;6.30;99.90;;;;;;5105955;28;20256;-81
2021/01/21 04:59:57;;;;;;;;;;;6.20;99.90;;;;;;5103868;28;19920;-80
2021/01/21 05:02:23;;;;;;;;;;;6.10;99.90;;;;;;5105255;28;19935;-80
2021/01/21 05:04:49;;;;;;;;;;;6.10;99.90;;;;;;5104386;28;20268;-81
2021/01/21 05:07:14;;;;;;;;;;;6.10;99.90;;;;;;5104545;28;19916;-81
2021/01/21 05:09:40;;;;;;;;;;;6.20;99.90;;;;;;5108538;28;19915;-80
2021/01/21 05:12:06;;;;;;;;;;;6.20;99.90;;;;;;5106829;28;19912;-80
2021/01/21 05:14:31;;;;;;;;;;;6.30;99.90;;;;;;5106935;28;20356;-80
2021/01/21 05:16:57;;;;;;;;;;;6.30;99.90;;;;;;5107038;28;20056;-80
2021/01/21 05:19:23;;;;;;;;;;;6.30;99.90;;;;;;5107303;28;20359;-80
2021/01/21 05:21:49;;;;;;;;;;;6.30;99.90;;;;;;5094813;28;20054;-80
2021/01/21 05:24:14;;;;;;;;;;;6.40;99.90;;;;;;5106117;28;19961;-80
2021/01/21 05:26:41;;;;;;;;;;;6.40;99.90;;;;;;5110302;28;19919;-80
2021/01/21 05:29:08;;;;;;;;;;;6.50;99.90;;;;;;5105057;28;20004;-80
2021/01/21 05:31:35;;;;;;;;;;;6.50;99.90;;;;;;5109399;28;19918;-80
2021/01/21 05:34:01;;;;;;;;;;;6.50;99.90;;;;;;5104798;28;19958;-80
2021/01/21 05:36:26;;;;;;;;;;;6.60;99.90;;;;;;5106683;28;19947;-80
2021/01/21 05:38:55;;;;;;;;;;;6.50;99.90;;;;;;5104521;28;19914;-81
2021/01/21 05:41:23;;;;;;;;;;;6.60;99.90;;;;;;5104106;28;20030;-80
2021/01/21 05:43:48;;;;;;;;;;;6.60;99.90;;;;;;5106445;28;20411;-80
2021/01/21 05:46:15;;;;;;;;;;;6.60;99.90;;;;;;5104915;28;19943;-80
2021/01/21 05:48:42;;;;;;;;;;;6.60;99.90;;;;;;5105990;28;19916;-80
2021/01/21 05:51:08;;;;;;;;;;;6.60;99.90;;;;;;5104867;28;20406;-81
2021/01/21 05:53:34;;;;;;;;;;;6.60;99.90;;;;;;5102950;28;19907;-81
2021/01/21 05:56:00;;;;;;;;;;;6.70;99.90;;;;;;5104360;28;19915;-80
2021/01/21 05:58:25;;;;;;;;;;;6.70;99.90;;;;;;5104236;28;20404;-80
2021/01/21 06:00:50;;;;;;;;;;;6.70;99.90;;;;;;5105383;28;20298;-80
2021/01/21 06:03:16;;;;;;;;;;;6.70;99.90;;;;;;5104014;28;19912;-80
2021/01/21 06:05:42;;;;;;;;;;;6.80;99.90;;;;;;5095262;28;20042;-80
2021/01/21 06:08:11;;;;;;;;;;;6.70;99.90;;;;;;5107536;28;20285;-81
2021/01/21 06:10:36;;;;;;;;;;;6.70;99.90;;;;;;5104609;28;19911;-81
2021/01/21 06:13:05;;;;;;;;;;;6.70;99.90;;;;;;5104945;28;19945;-81
2021/01/21 06:15:31;;;;;;;;;;;6.60;99.90;;;;;;5104801;28;19994;-80
2021/01/21 06:17:57;;;;;;;;;;;6.60;99.90;;;;;;5097988;28;20282;-81
2021/01/21 06:20:22;;;;;;;;;;;6.60;99.90;;;;;;5101715;28;19908;-81
2021/01/21 06:22:48;;;;;;;;;;;6.50;99.90;;;;;;5106132;28;19999;-80
2021/01/21 06:25:14;;;;;;;;;;;6.50;99.90;;;;;;5102148;28;19977;-80
2021/01/21 06:27:41;;;;;;;;;;;6.50;99.10;;;;;;5103660;28;19912;-81
2021/01/21 06:30:08;;;;;;;;;;;6.60;97.50;;;;;;5104753;28;19912;-80
2021/01/21 06:32:37;;;;;;;;;;;6.60;95.90;;;;;;5100582;28;20325;-81
2021/01/21 06:35:04;;;;;;;;;;;6.60;95.50;;;;;;5108336;28;19908;-80
2021/01/21 06:37:32;;;;;;;;;;;6.60;95.80;;;;;;5103132;28;19908;-81
2021/01/21 06:40:01;;;;;;;;;;;6.50;96.40;;;;;;5101055;28;19915;-80
2021/01/21 06:42:29;;;;;;;;;;;6.50;95.40;;;;;;5106626;28;19920;-80
2021/01/21 06:44:55;;;;;;;;;;;6.50;94.30;;;;;;5113715;28;19935;-80
2021/01/21 06:47:21;;;;;;;;;;;6.50;93.90;;;;;;5106865;28;19980;-80
2021/01/21 06:49:47;;;;;;;;;;;6.40;93.80;;;;;;5092947;28;20384;-79
2021/01/21 06:52:12;;;;;;;;;;;6.40;93.70;;;;;;5092644;28;19919;-80
2021/01/21 06:54:39;;;;;;;;;;;6.40;92.90;;;;;;5093782;28;19916;-81
2021/01/21 06:57:24;;;;;;;;;;;6.40;92.60;;;;;;5095561;28;19918;-80
2021/01/21 06:59:54;;;;;;;;;;;6.30;92.80;;;;;;5115383;27;19919;-80
2021/01/21 07:02:38;;;;;;;;;;;6.30;92.40;;;;;;5123772;27;19911;-80
2021/01/21 07:05:07;;;;;;;;;;;6.30;92.00;;;;;;5116619;27;19907;-80
2021/01/21 07:07:52;;;;;;;;;;;6.30;91.90;;;;;;5095725;28;19908;-80
2021/01/21 07:10:36;;;;;;;;;;;6.20;92.40;;;;;;5126847;27;19912;-80
2021/01/21 07:13:06;;;;;;;;;;;6.10;92.10;;;;;;5121968;27;19995;-80
2021/01/21 07:15:35;;;;;;;;;;;6.10;92.10;;;;;;5132610;27;20381;-80
2021/01/21 07:18:02;;;;;;;;;;;6.10;92.20;;;;;;5109006;28;19912;-80
2021/01/21 07:20:29;;;;;;;;;;;6.00;92.50;;;;;;5113581;28;19951;-79
2021/01/21 07:22:58;;;;;;;;;;;6.00;92.80;;;;;;5113796;28;19912;-79
2021/01/21 07:25:29;;;;;;;;;;;5.90;92.80;;;;;;5095136;28;19988;-79
2021/01/21 07:27:54;;;;;;;;;;;6.00;92.30;;;;;;5113733;28;19953;-80
2021/01/21 07:30:21;;;;;;;;;;;6.00;92.10;;;;;;5095573;28;20279;-79
2021/01/21 07:32:47;;;;;;;;;;;6.00;92.10;;;;;;5103229;28;20015;-80
2021/01/21 07:35:30;;;;;;;;;;;5.90;92.10;;;;;;5122535;28;19998;-80
2021/01/21 07:37:56;;;;;;;;;;;5.90;92.10;;;;;;5105999;28;19969;-80
2021/01/21 07:40:39;;;;;;;;;;;5.90;92.50;;;;;;5103588;28;20271;-80
2021/01/21 07:43:04;;;;;;;;;;;5.90;92.50;;;;;;5104079;28;20283;-80
2021/01/21 07:45:31;;;;;;;;;;;5.80;92.80;;;;;;5121833;28;19907;-80
2021/01/21 07:48:16;;;;;;;;;;;5.80;92.80;;;;;;5123249;28;19937;-80
2021/01/21 07:50:42;;;;;;;;;;;5.80;92.70;;;;;;5123481;28;19912;-80
2021/01/21 07:53:17;;;;;;;;;;;5.80;92.20;;;;;;5105066;28;20390;-80
2021/01/21 07:55:43;;;;;;;;;;;5.90;92.20;;;;;;5122347;28;19967;-80
2021/01/21 07:58:20;;;;;;;;;;;5.90;92.30;;;;;;5122116;28;19915;-80
2021/01/21 08:00:47;;;;;;;;;;;5.90;92.10;;;;;;5123152;28;19976;-80
2021/01/21 08:03:13;;;;;;;;;;;5.90;92.20;;;;;;5124484;28;20028;-80
2021/01/21 08:05:38;;;;;;;;;;;5.90;92.30;;;;;;5099394;28;19984;-80
2021/01/21 08:08:04;;;;;;;;;;;5.90;92.20;;;;;;5120519;28;19912;-80
2021/01/21 08:10:30;;;;;;;;;;;5.90;92.50;;;;;;5098162;28;19915;-80
2021/01/21 08:13:03;;;;;;;;;;;5.90;92.80;;;;;;5116094;28;19915;-80
2021/01/21 08:15:29;;;;;;;;;;;5.90;92.80;;;;;;5102635;28;20530;-80
2021/01/21 08:17:55;;;;;;;;;;;5.90;93.00;;;;;;5106200;28;19908;-80
2021/01/21 08:20:21;;;;;;;;;;;6.00;92.90;;;;;;5117271;28;19911;-80
2021/01/21 08:22:50;;;;;;;;;;;6.00;92.90;;;;;;5123702;28;19966;-80
2021/01/21 08:25:16;;;;;;;;;;;6.00;93.20;;;;;;5104264;28;19907;-80
2021/01/21 08:27:45;;;;;;;;;;;6.00;93.30;;;;;;5104148;28;19916;-80
2021/01/21 08:30:22;;;;;;;;;;;6.00;93.30;;;;;;5079572;28;19915;-80
2021/01/21 08:32:50;;;;;;;;;;;6.00;93.50;;;;;;5082302;28;20267;-80
2021/01/21 08:35:17;;;;;;;;;;;6.10;93.50;;;;;;5103936;28;20370;-81
2021/01/21 08:37:43;;;;;;;;;;;6.00;93.90;;;;;;5124345;27;20069;-79
2021/01/21 08:40:09;;;;;;;;;;;6.00;94.40;;;;;;5109177;27;19960;-80
2021/01/21 08:42:35;;;;;;;;;;;6.00;94.80;;;;;;5100600;27;19915;-80
2021/01/21 08:45:00;;;;;;;;;;;6.00;95.10;;;;;;5097651;28;19908;-80
2021/01/21 08:47:41;;;;;;;;;;;6.00;95.40;;;;;;5121598;27;19978;-80
2021/01/21 08:50:09;;;;;;;;;;;6.00;95.70;;;;;;5127466;27;20363;-80
2021/01/21 08:52:36;;;;;;;;;;;6.10;96.10;;;;;;5107047;27;19908;-80
2021/01/21 08:55:02;;;;;;;;;;;6.10;96.20;;;;;;5125890;27;20003;-80
2021/01/21 08:57:28;;;;;;;;;;;6.10;96.50;;;;;;5123554;27;20352;-80
2021/01/21 08:59:53;;;;;;;;;;;6.10;96.70;;;;;;5100545;27;19920;-80
2021/01/21 09:02:38;;;;;;;;;;;6.10;96.90;;;;;;5106237;27;20251;-80
2021/01/21 09:05:04;;;;;;;;;;;6.20;97.00;;;;;;5126517;27;20356;-80
2021/01/21 09:07:32;;;;;;;;;;;6.10;97.20;;;;;;5106088;27;19908;-80
2021/01/21 09:10:07;;;;;;;;;;;6.20;97.60;;;;;;5108105;27;20375;-80
2021/01/21 09:12:33;;;;;;;;;;;6.20;97.50;;;;;;5120953;27;20018;-80
2021/01/21 09:15:00;;;;;;;;;;;6.30;97.60;;;;;;5122358;27;20375;-80
2021/01/21 09:17:26;;;;;;;;;;;6.30;97.50;;;;;;5126425;27;19907;-80
2021/01/21 09:19:51;;;;;;;;;;;6.30;97.70;;;;;;5124087;27;20328;-80
2021/01/21 09:22:22;;;;;;;;;;;6.40;97.60;;;;;;5124793;27;19912;-80
2021/01/21 09:24:54;;;;;;;;;;;6.40;97.50;;;;;;5124098;27;20267;-80
2021/01/21 09:27:22;;;;;;;;;;;6.50;97.40;;;;;;5126108;27;19911;-80
2021/01/21 09:29:52;;;;;;;;;;;6.50;97.50;;;;;;5131511;27;20363;-79
2021/01/21 09:32:21;;;;;;;;;;;6.50;97.30;;;;;;5136115;27;19907;-79
2021/01/21 09:34:54;;;;;;;;;;;6.60;97.20;;;;;;5117808;27;20352;-80
2021/01/21 09:37:20;;;;;;;;;;;6.60;97.20;;;;;;5136006;27;19949;-80
2021/01/21 09:39:46;;;;;;;;;;;6.60;97.10;;;;;;5117519;27;20015;-80
2021/01/21 09:42:11;;;;;;;;;;;6.80;96.60;;;;;;5135864;27;19912;-81
2021/01/21 09:44:37;;;;;;;;;;;7.00;96.30;;;;;;5135713;27;19908;-78
2021/01/21 09:47:02;;;;;;;;;;;7.00;96.20;;;;;;5130540;27;19926;-81
2021/01/21 09:49:27;;;;;;;;;;;7.00;96.10;;;;;;5118410;27;20005;-82
2021/01/21 09:51:53;;;;;;;;;;;7.00;95.90;;;;;;5114550;27;19939;-83
2021/01/21 09:54:18;;;;;;;;;;;7.00;95.80;;;;;;5114961;28;19908;-82
2021/01/21 09:56:44;;;;;;;;;;;7.10;95.80;;;;;;5096750;28;19915;-81
2021/01/21 09:59:11;;;;;;;;;;;7.10;96.00;;;;;;5096535;28;19972;-81
2021/01/21 10:01:36;;;;;;;;;;;7.10;95.70;;;;;;5130575;27;19922;-80
2021/01/21 10:04:02;;;;;;;;;;;7.20;95.70;;;;;;5114680;28;19908;-81
2021/01/21 10:06:27;;;;;;;;;;;7.20;95.90;;;;;;5126973;27;19907;-81
2021/01/21 10:08:53;;;;;;;;;;;7.30;95.60;;;;;;5135221;27;19908;-81
2021/01/21 10:11:18;;;;;;;;;;;7.30;95.50;;;;;;5135232;27;19907;-81
2021/01/21 10:13:43;;;;;;;;;;;7.40;95.10;;;;;;5116711;27;20006;-81
2021/01/21 10:16:09;;;;;;;;;;;7.50;95.30;;;;;;5116966;27;19946;-81
2021/01/21 10:18:34;;;;;;;;;;;7.50;94.90;;;;;;5103478;28;19911;-81
2021/01/21 10:21:00;;;;;;;;;;;7.60;95.10;;;;;;5121258;27;20359;-81
2021/01/21 10:23:25;;;;;;;;;;;7.60;94.60;;;;;;5105363;27;20386;-81
2021/01/21 10:25:50;;;;;;;;;;;7.60;94.80;;;;;;5107200;27;19907;-81
2021/01/21 10:28:16;;;;;;;;;;;7.60;94.60;;;;;;5116214;27;19911;-81
2021/01/21 10:30:41;;;;;;;;;;;7.60;94.60;;;;;;5134899;27;19908;-81
2021/01/21 10:33:07;;;;;;;;;;;7.50;95.00;;;;;;5134878;27;19911;-80
2021/01/21 10:35:32;;;;;;;;;;;7.60;94.90;;;;;;5134591;27;19914;-81
2021/01/21 10:37:58;;;;;;;;;;;7.60;94.50;;;;;;5129452;27;19908;-81
2021/01/21 10:40:23;;;;;;;;;;;7.60;94.30;;;;;;5133981;27;20366;-81
2021/01/21 10:42:49;;;;;;;;;;;7.70;94.10;;;;;;5101322;28;20015;-81
2021/01/21 10:45:14;;;;;;;;;;;7.70;93.90;;;;;;5113963;27;19915;-82
2021/01/21 10:47:40;;;;;;;;;;;7.70;94.00;;;;;;5105880;28;20379;-81
2021/01/21 10:50:08;;;;;;;;;;;7.70;94.20;;;;;;5105650;28;19915;-81
2021/01/21 10:52:34;;;;;;;;;;;7.70;94.10;;;;;;5128128;27;19907;-81
2021/01/21 10:54:59;;;;;;;;;;;7.70;93.60;;;;;;5130962;27;19918;-81
2021/01/21 10:57:25;;;;;;;;;;;7.80;93.80;;;;;;5122707;27;19907;-81
2021/01/21 10:59:50;;;;;;;;;;;7.80;93.90;;;;;;5123573;27;20388;-82
2021/01/21 11:02:16;;;;;;;;;;;7.80;93.60;;;;;;5105501;27;19916;-82
2021/01/21 11:04:42;;;;;;;;;;;7.90;93.40;;;;;;5122886;27;19918;-81
2021/01/21 11:07:07;;;;;;;;;;;7.90;93.50;;;;;;5106502;27;20382;-81
2021/01/21 11:09:35;;;;;;;;;;;8.00;93.30;;;;;;5107358;27;19973;-81
2021/01/21 11:12:04;;;;;;;;;;;8.00;93.40;;;;;;5112527;27;20010;-81
2021/01/21 11:14:30;;;;;;;;;;;7.90;93.30;;;;;;5134064;27;19954;-81
2021/01/21 11:16:56;;;;;;;;;;;8.00;93.80;;;;;;5134430;27;19907;-82
2021/01/21 11:19:21;;;;;;;;;;;8.00;93.50;;;;;;5116075;27;20346;-81
2021/01/21 11:21:46;;;;;;;;;;;8.10;93.30;;;;;;5100660;28;20394;-81
2021/01/21 11:24:12;;;;;;;;;;;8.00;93.30;;;;;;5105241;28;19931;-81
2021/01/21 11:26:37;;;;;;;;;;;8.00;93.10;;;;;;5125281;28;19907;-81
2021/01/21 11:29:03;;;;;;;;;;;8.00;93.30;;;;;;5134261;28;19911;-81
2021/01/21 11:31:28;;;;;;;;;;;8.00;92.90;;;;;;5134194;28;19908;-81
2021/01/21 11:33:54;;;;;;;;;;;8.00;92.80;;;;;;5134162;28;20363;-80
2021/01/21 11:36:19;;;;;;;;;;;7.90;93.10;;;;;;5115805;28;20375;-82
2021/01/21 11:38:45;;;;;;;;;;;7.90;93.00;;;;;;5133992;28;19907;-81
2021/01/21 11:41:10;;;;;;;;;;;7.90;93.00;;;;;;5122821;28;20351;-81
2021/01/21 11:43:36;;;;;;;;;;;7.90;93.40;;;;;;5101174;28;19925;-81
2021/01/21 11:46:01;;;;;;;;;;;7.90;93.30;;;;;;5105657;28;19908;-81
2021/01/21 11:48:27;;;;;;;;;;;7.90;93.20;;;;;;5100638;28;19908;-81
2021/01/21 11:50:52;;;;;;;;;;;7.80;93.00;;;;;;5095553;28;19908;-81
2021/01/21 11:53:19;;;;;;;;;;;7.90;92.90;;;;;;5113385;28;19912;-81
2021/01/21 11:55:44;;;;;;;;;;;7.90;92.90;;;;;;5113157;28;19912;-81
2021/01/21 11:58:09;;;;;;;;;;;8.20;92.90;;;;;;5119121;28;20247;-81
2021/01/21 12:00:35;;;;;;;;;;;8.40;92.20;;;;;;5112176;28;19927;-81
2021/01/21 12:03:00;;;;;;;;;;;8.50;91.70;;;;;;5078559;28;19919;-81
2021/01/21 12:05:26;;;;;;;;;;;8.50;91.70;;;;;;5094925;28;19911;-80
2021/01/21 12:07:51;;;;;;;;;;;8.40;92.20;;;;;;5119412;28;19916;-80
2021/01/21 12:10:19;;;;;;;;;;;8.60;92.20;;;;;;5121909;28;20382;-81
2021/01/21 12:12:45;;;;;;;;;;;9.00;91.10;;;;;;5107937;27;19919;-81
2021/01/21 12:15:11;;;;;;;;;;;8.90;90.80;;;;;;5081880;27;19919;-80
2021/01/21 12:17:36;;;;;;;;;;;8.70;91.00;;;;;;5096095;27;19922;-81
2021/01/21 12:20:02;;;;;;;;;;;8.70;91.30;;;;;;5102882;27;19908;-80
2021/01/21 12:22:27;;;;;;;;;;;8.80;91.30;;;;;;5125699;27;19919;-81
2021/01/21 12:24:53;;;;;;;;;;;8.80;91.10;;;;;;5127058;27;20282;-81
2021/01/21 12:27:18;;;;;;;;;;;8.70;90.90;;;;;;5105284;27;19934;-81
2021/01/21 12:29:44;;;;;;;;;;;8.60;90.90;;;;;;5124395;27;19911;-81
2021/01/21 12:32:09;;;;;;;;;;;8.50;91.10;;;;;;5107579;27;19908;-82
2021/01/21 12:34:35;;;;;;;;;;;8.50;91.30;;;;;;5108251;27;19908;-81
2021/01/21 12:37:00;;;;;;;;;;;8.40;91.20;;;;;;5127079;27;19908;-82
2021/01/21 12:39:26;;;;;;;;;;;8.40;91.10;;;;;;5106962;27;19916;-81
2021/01/21 12:41:52;;;;;;;;;;;8.40;91.20;;;;;;5105391;27;19977;-82
2021/01/21 12:44:18;;;;;;;;;;;8.30;91.10;;;;;;5121700;27;19912;-81
2021/01/21 12:46:44;;;;;;;;;;;8.40;91.60;;;;;;5129159;27;19964;-81
2021/01/21 12:49:10;;;;;;;;;;;8.40;91.50;;;;;;5124591;27;20318;-81
2021/01/21 12:51:35;;;;;;;;;;;8.50;91.30;;;;;;5126092;27;19916;-81
2021/01/21 12:54:01;;;;;;;;;;;8.70;91.00;;;;;;5102887;27;19919;-81
2021/01/21 12:56:26;;;;;;;;;;;8.80;90.40;;;;;;5102975;27;19911;-81
2021/01/21 12:58:52;;;;;;;;;;;8.80;89.30;;;;;;5125433;27;19915;-80
2021/01/21 13:01:17;;;;;;;;;;;8.90;90.30;;;;;;5125717;27;20359;-81
2021/01/21 13:03:43;;;;;;;;;;;8.90;90.00;;;;;;5108757;27;20079;-81
2021/01/21 13:06:08;;;;;;;;;;;8.80;90.00;;;;;;5124852;27;19914;-82
2021/01/21 13:08:37;;;;;;;;;;;8.90;89.20;;;;;;5126228;27;19914;-81
2021/01/21 13:11:02;;;;;;;;;;;8.80;89.10;;;;;;5126859;27;19908;-81
2021/01/21 13:13:28;;;;;;;;;;;8.80;90.10;;;;;;5104135;27;19915;-81
2021/01/21 13:15:54;;;;;;;;;;;8.80;90.20;;;;;;5119726;27;19908;-81
2021/01/21 13:18:19;;;;;;;;;;;8.90;90.50;;;;;;5116635;27;19916;-81
2021/01/21 13:20:45;;;;;;;;;;;8.90;89.00;;;;;;5112505;27;20014;-80
2021/01/21 13:23:11;;;;;;;;;;;8.80;89.70;;;;;;5115236;27;20371;-80
2021/01/21 13:25:36;;;;;;;;;;;8.90;89.60;;;;;;5103894;28;20054;-78
2021/01/21 13:28:02;;;;;;;;;;;8.80;89.80;;;;;;5095736;28;19950;-80
2021/01/21 13:30:27;;;;;;;;;;;8.70;90.00;;;;;;5119910;27;20363;-80
2021/01/21 13:32:53;;;;;;;;;;;8.70;90.20;;;;;;5121974;27;20344;-80
2021/01/21 13:35:18;;;;;;;;;;;8.60;90.10;;;;;;5115273;27;19915;-80
2021/01/21 13:37:44;;;;;;;;;;;8.60;90.30;;;;;;5117765;27;20393;-80
2021/01/21 13:40:09;;;;;;;;;;;8.70;90.60;;;;;;5097722;28;19968;-80
2021/01/21 13:42:35;;;;;;;;;;;8.60;90.10;;;;;;5095881;28;19958;-80
2021/01/21 13:45:00;;;;;;;;;;;8.60;90.20;;;;;;5096210;28;19918;-80
2021/01/21 13:47:26;;;;;;;;;;;8.60;90.30;;;;;;5117085;27;19968;-79
2021/01/21 13:49:51;;;;;;;;;;;8.60;90.40;;;;;;5104351;27;19911;-80
2021/01/21 13:52:17;;;;;;;;;;;8.70;90.40;;;;;;5101834;27;19974;-80
2021/01/21 13:54:42;;;;;;;;;;;8.80;90.50;;;;;;5116489;27;19915;-80
2021/01/21 13:57:08;;;;;;;;;;;8.70;89.80;;;;;;5113993;28;19915;-80
2021/01/21 13:59:33;;;;;;;;;;;8.70;90.00;;;;;;5114338;27;20458;-80
2021/01/21 14:01:58;;;;;;;;;;;8.70;90.40;;;;;;5095505;28;19927;-80
2021/01/21 14:04:24;;;;;;;;;;;8.70;90.50;;;;;;5097303;27;19947;-80
2021/01/21 14:06:49;;;;;;;;;;;8.60;90.30;;;;;;5115709;27;19923;-81
2021/01/21 14:09:15;;;;;;;;;;;8.60;90.50;;;;;;5115106;27;19918;-80
2021/01/21 14:11:40;;;;;;;;;;;8.60;89.80;;;;;;5115154;27;19954;-80
2021/01/21 14:14:06;;;;;;;;;;;8.60;89.90;;;;;;5095791;28;19916;-80
2021/01/21 14:16:31;;;;;;;;;;;8.60;90.00;;;;;;5112728;27;19955;-80
2021/01/21 14:18:57;;;;;;;;;;;8.50;90.30;;;;;;5118179;27;19965;-80
2021/01/21 14:21:22;;;;;;;;;;;8.50;90.30;;;;;;5117900;27;20454;-80
2021/01/21 14:23:48;;;;;;;;;;;8.50;90.60;;;;;;5116642;27;20290;-80